sensor_id;sensor_type;location;lat;lon;timestamp;P1;durP1;ratioP1;P2;durP2;ratioP2
21315;SDS011;10817;55.820;13.030;2023-03-19T00:02:00;50.17;;;21.83;;
21315;SDS011;10817;55.820;13.030;2023-03-19T00:04:27;70.28;;;21.83;;
21315;SDS011;10817;55.820;13.030;2023-03-19T00:06:54;65.03;;;22.25;;
21315;SDS011;10817;55.820;13.030;2023-03-19T00:09:22;43.55;;;21.70;;
21315;SDS011;10817;55.820;13.030;2023-03-19T00:11:50;41.92;;;22.38;;
21315;SDS011;10817;55.820;13.030;2023-03-19T00:14:17;62.58;;;24.65;;
21315;SDS011;10817;55.820;13.030;2023-03-19T00:16:44;43.65;;;22.73;;
21315;SDS011;10817;55.820;13.030;2023-03-19T00:19:11;58.33;;;21.38;;
21315;SDS011;10817;55.820;13.030;2023-03-19T00:21:39;58.10;;;22.25;;
21315;SDS011;10817;55.820;13.030;2023-03-19T00:24:07;65.70;;;21.23;;
21315;SDS011;10817;55.820;13.030;2023-03-19T00:26:34;42.47;;;21.13;;
21315;SDS011;10817;55.820;13.030;2023-03-19T00:29:03;52.42;;;21.63;;
21315;SDS011;10817;55.820;13.030;2023-03-19T00:31:30;49.05;;;22.67;;
21315;SDS011;10817;55.820;13.030;2023-03-19T00:33:57;46.30;;;24.00;;
21315;SDS011;10817;55.820;13.030;2023-03-19T00:36:25;51.47;;;23.75;;
21315;SDS011;10817;55.820;13.030;2023-03-19T00:38:55;46.40;;;23.02;;
21315;SDS011;10817;55.820;13.030;2023-03-19T00:41:22;40.92;;;23.33;;
21315;SDS011;10817;55.820;13.030;2023-03-19T00:43:53;63.63;;;23.92;;
21315;SDS011;10817;55.820;13.030;2023-03-19T00:46:22;52.80;;;24.38;;
21315;SDS011;10817;55.820;13.030;2023-03-19T00:48:50;46.00;;;24.10;;
21315;SDS011;10817;55.820;13.030;2023-03-19T00:51:19;44.25;;;23.55;;
21315;SDS011;10817;55.820;13.030;2023-03-19T00:53:47;39.25;;;22.08;;
21315;SDS011;10817;55.820;13.030;2023-03-19T00:56:14;73.93;;;23.85;;
21315;SDS011;10817;55.820;13.030;2023-03-19T00:58:42;43.67;;;23.63;;
21315;SDS011;10817;55.820;13.030;2023-03-19T01:01:10;53.58;;;23.42;;
21315;SDS011;10817;55.820;13.030;2023-03-19T01:03:39;84.30;;;25.92;;
21315;SDS011;10817;55.820;13.030;2023-03-19T01:06:06;44.40;;;24.55;;
21315;SDS011;10817;55.820;13.030;2023-03-19T01:08:33;47.55;;;25.67;;
21315;SDS011;10817;55.820;13.030;2023-03-19T01:11:04;74.30;;;25.35;;
21315;SDS011;10817;55.820;13.030;2023-03-19T01:13:32;91.88;;;25.85;;
21315;SDS011;10817;55.820;13.030;2023-03-19T01:15:59;104.90;;;25.88;;
21315;SDS011;10817;55.820;13.030;2023-03-19T01:18:26;86.43;;;28.05;;
21315;SDS011;10817;55.820;13.030;2023-03-19T01:20:55;86.60;;;28.67;;
21315;SDS011;10817;55.820;13.030;2023-03-19T01:23:23;93.90;;;29.60;;
21315;SDS011;10817;55.820;13.030;2023-03-19T01:25:50;84.85;;;30.65;;
21315;SDS011;10817;55.820;13.030;2023-03-19T01:28:17;71.10;;;29.45;;
21315;SDS011;10817;55.820;13.030;2023-03-19T01:30:44;100.50;;;30.42;;
21315;SDS011;10817;55.820;13.030;2023-03-19T01:33:32;114.47;;;30.38;;
21315;SDS011;10817;55.820;13.030;2023-03-19T01:36:03;89.60;;;31.20;;
21315;SDS011;10817;55.820;13.030;2023-03-19T01:38:40;58.47;;;28.42;;
21315;SDS011;10817;55.820;13.030;2023-03-19T01:41:13;55.55;;;27.83;;
21315;SDS011;10817;55.820;13.030;2023-03-19T01:43:40;51.80;;;26.23;;
21315;SDS011;10817;55.820;13.030;2023-03-19T01:46:27;73.05;;;25.83;;
21315;SDS011;10817;55.820;13.030;2023-03-19T01:49:14;76.57;;;29.23;;
21315;SDS011;10817;55.820;13.030;2023-03-19T01:51:47;56.58;;;28.30;;
21315;SDS011;10817;55.820;13.030;2023-03-19T01:54:25;64.72;;;31.20;;
21315;SDS011;10817;55.820;13.030;2023-03-19T01:57:12;47.35;;;28.90;;
21315;SDS011;10817;55.820;13.030;2023-03-19T02:00:07;70.30;;;28.30;;
21315;SDS011;10817;55.820;13.030;2023-03-19T02:02:43;52.55;;;27.70;;
21315;SDS011;10817;55.820;13.030;2023-03-19T02:05:45;66.20;;;27.90;;
21315;SDS011;10817;55.820;13.030;2023-03-19T02:08:15;80.40;;;29.55;;
21315;SDS011;10817;55.820;13.030;2023-03-19T02:10:43;54.08;;;29.15;;
21315;SDS011;10817;55.820;13.030;2023-03-19T02:13:12;59.40;;;28.00;;
21315;SDS011;10817;55.820;13.030;2023-03-19T02:15:39;52.58;;;27.25;;
21315;SDS011;10817;55.820;13.030;2023-03-19T02:18:07;58.05;;;26.60;;
21315;SDS011;10817;55.820;13.030;2023-03-19T02:20:39;53.47;;;27.42;;
21315;SDS011;10817;55.820;13.030;2023-03-19T02:23:13;48.75;;;26.80;;
21315;SDS011;10817;55.820;13.030;2023-03-19T02:26:00;53.90;;;27.83;;
21315;SDS011;10817;55.820;13.030;2023-03-19T02:28:29;53.55;;;27.60;;
21315;SDS011;10817;55.820;13.030;2023-03-19T02:30:57;66.18;;;29.05;;
21315;SDS011;10817;55.820;13.030;2023-03-19T02:33:25;52.38;;;27.98;;
21315;SDS011;10817;55.820;13.030;2023-03-19T02:35:52;49.00;;;28.30;;
21315;SDS011;10817;55.820;13.030;2023-03-19T02:38:20;61.15;;;29.38;;
21315;SDS011;10817;55.820;13.030;2023-03-19T02:40:50;49.20;;;30.15;;
21315;SDS011;10817;55.820;13.030;2023-03-19T02:43:21;54.63;;;28.80;;
21315;SDS011;10817;55.820;13.030;2023-03-19T02:45:49;59.50;;;28.65;;
21315;SDS011;10817;55.820;13.030;2023-03-19T02:48:16;50.92;;;27.60;;
21315;SDS011;10817;55.820;13.030;2023-03-19T02:50:44;72.68;;;29.67;;
21315;SDS011;10817;55.820;13.030;2023-03-19T02:53:11;51.83;;;28.30;;
21315;SDS011;10817;55.820;13.030;2023-03-19T02:55:39;54.65;;;29.27;;
21315;SDS011;10817;55.820;13.030;2023-03-19T02:58:07;53.58;;;28.63;;
21315;SDS011;10817;55.820;13.030;2023-03-19T03:00:35;50.88;;;27.95;;
21315;SDS011;10817;55.820;13.030;2023-03-19T03:03:03;50.58;;;28.42;;
21315;SDS011;10817;55.820;13.030;2023-03-19T03:05:32;63.28;;;29.85;;
21315;SDS011;10817;55.820;13.030;2023-03-19T03:07:59;56.38;;;29.38;;
21315;SDS011;10817;55.820;13.030;2023-03-19T03:10:28;64.05;;;29.08;;
21315;SDS011;10817;55.820;13.030;2023-03-19T03:12:55;66.78;;;30.27;;
21315;SDS011;10817;55.820;13.030;2023-03-19T03:15:22;48.15;;;29.17;;
21315;SDS011;10817;55.820;13.030;2023-03-19T03:17:51;55.90;;;29.92;;
21315;SDS011;10817;55.820;13.030;2023-03-19T03:20:20;58.13;;;29.35;;
21315;SDS011;10817;55.820;13.030;2023-03-19T03:22:47;80.20;;;31.80;;
21315;SDS011;10817;55.820;13.030;2023-03-19T03:25:14;68.93;;;32.78;;
21315;SDS011;10817;55.820;13.030;2023-03-19T03:27:42;62.92;;;31.80;;
21315;SDS011;10817;55.820;13.030;2023-03-19T03:30:10;77.32;;;32.70;;
21315;SDS011;10817;55.820;13.030;2023-03-19T03:32:39;76.85;;;31.92;;
21315;SDS011;10817;55.820;13.030;2023-03-19T03:35:08;59.65;;;32.53;;
21315;SDS011;10817;55.820;13.030;2023-03-19T03:37:35;63.17;;;31.13;;
21315;SDS011;10817;55.820;13.030;2023-03-19T03:40:04;68.00;;;32.72;;
21315;SDS011;10817;55.820;13.030;2023-03-19T03:42:34;54.75;;;31.33;;
21315;SDS011;10817;55.820;13.030;2023-03-19T03:45:03;56.22;;;32.00;;
21315;SDS011;10817;55.820;13.030;2023-03-19T03:47:31;77.80;;;31.60;;
21315;SDS011;10817;55.820;13.030;2023-03-19T03:49:59;68.25;;;31.35;;
21315;SDS011;10817;55.820;13.030;2023-03-19T03:52:29;58.50;;;31.83;;
21315;SDS011;10817;55.820;13.030;2023-03-19T03:54:58;64.85;;;31.70;;
21315;SDS011;10817;55.820;13.030;2023-03-19T03:57:25;63.08;;;31.67;;
21315;SDS011;10817;55.820;13.030;2023-03-19T03:59:54;57.75;;;31.92;;
21315;SDS011;10817;55.820;13.030;2023-03-19T04:02:22;81.85;;;33.03;;
21315;SDS011;10817;55.820;13.030;2023-03-19T04:04:49;67.05;;;31.90;;
21315;SDS011;10817;55.820;13.030;2023-03-19T04:07:16;65.00;;;31.23;;
21315;SDS011;10817;55.820;13.030;2023-03-19T04:09:48;54.08;;;30.13;;
21315;SDS011;10817;55.820;13.030;2023-03-19T04:12:15;95.45;;;32.03;;
21315;SDS011;10817;55.820;13.030;2023-03-19T04:14:43;81.63;;;29.55;;
21315;SDS011;10817;55.820;13.030;2023-03-19T04:17:10;61.65;;;29.33;;
21315;SDS011;10817;55.820;13.030;2023-03-19T04:19:38;66.32;;;28.23;;
21315;SDS011;10817;55.820;13.030;2023-03-19T04:22:05;60.25;;;27.10;;
21315;SDS011;10817;55.820;13.030;2023-03-19T04:24:33;65.07;;;27.25;;
21315;SDS011;10817;55.820;13.030;2023-03-19T04:27:02;71.82;;;28.42;;
21315;SDS011;10817;55.820;13.030;2023-03-19T04:29:29;51.90;;;26.88;;
21315;SDS011;10817;55.820;13.030;2023-03-19T04:31:57;134.52;;;28.00;;
21315;SDS011;10817;55.820;13.030;2023-03-19T04:34:24;119.15;;;29.55;;
21315;SDS011;10817;55.820;13.030;2023-03-19T04:36:52;62.17;;;28.25;;
21315;SDS011;10817;55.820;13.030;2023-03-19T04:39:19;76.95;;;27.48;;
21315;SDS011;10817;55.820;13.030;2023-03-19T04:41:46;51.63;;;28.40;;
21315;SDS011;10817;55.820;13.030;2023-03-19T04:44:26;94.63;;;30.42;;
21315;SDS011;10817;55.820;13.030;2023-03-19T04:46:53;60.08;;;28.88;;
21315;SDS011;10817;55.820;13.030;2023-03-19T04:49:21;47.60;;;29.35;;
21315;SDS011;10817;55.820;13.030;2023-03-19T04:51:49;56.55;;;29.10;;
21315;SDS011;10817;55.820;13.030;2023-03-19T04:54:17;62.05;;;30.17;;
21315;SDS011;10817;55.820;13.030;2023-03-19T04:56:44;83.05;;;29.38;;
21315;SDS011;10817;55.820;13.030;2023-03-19T04:59:11;69.10;;;31.33;;
21315;SDS011;10817;55.820;13.030;2023-03-19T05:01:40;102.80;;;31.58;;
21315;SDS011;10817;55.820;13.030;2023-03-19T05:04:10;84.47;;;30.98;;
21315;SDS011;10817;55.820;13.030;2023-03-19T05:06:38;88.63;;;30.13;;
21315;SDS011;10817;55.820;13.030;2023-03-19T05:09:05;91.00;;;30.80;;
21315;SDS011;10817;55.820;13.030;2023-03-19T05:11:33;63.10;;;31.52;;
21315;SDS011;10817;55.820;13.030;2023-03-19T05:14:03;68.68;;;31.13;;
21315;SDS011;10817;55.820;13.030;2023-03-19T05:16:55;65.40;;;29.55;;
21315;SDS011;10817;55.820;13.030;2023-03-19T05:19:25;60.72;;;30.33;;
21315;SDS011;10817;55.820;13.030;2023-03-19T05:21:53;57.30;;;30.42;;
21315;SDS011;10817;55.820;13.030;2023-03-19T05:24:22;60.60;;;31.52;;
21315;SDS011;10817;55.820;13.030;2023-03-19T05:26:51;68.20;;;32.10;;
21315;SDS011;10817;55.820;13.030;2023-03-19T05:29:26;89.40;;;33.85;;
21315;SDS011;10817;55.820;13.030;2023-03-19T05:32:17;49.63;;;32.08;;
21315;SDS011;10817;55.820;13.030;2023-03-19T05:34:45;55.42;;;31.55;;
21315;SDS011;10817;55.820;13.030;2023-03-19T05:37:12;58.80;;;29.95;;
21315;SDS011;10817;55.820;13.030;2023-03-19T05:39:44;46.58;;;30.48;;
21315;SDS011;10817;55.820;13.030;2023-03-19T05:42:12;58.50;;;31.60;;
21315;SDS011;10817;55.820;13.030;2023-03-19T05:44:40;66.32;;;31.60;;
21315;SDS011;10817;55.820;13.030;2023-03-19T05:47:35;52.70;;;30.80;;
21315;SDS011;10817;55.820;13.030;2023-03-19T05:50:03;77.00;;;31.42;;
21315;SDS011;10817;55.820;13.030;2023-03-19T05:52:30;109.28;;;33.28;;
21315;SDS011;10817;55.820;13.030;2023-03-19T05:54:58;66.90;;;31.38;;
21315;SDS011;10817;55.820;13.030;2023-03-19T05:57:38;84.72;;;32.78;;
21315;SDS011;10817;55.820;13.030;2023-03-19T06:00:11;104.32;;;34.22;;
21315;SDS011;10817;55.820;13.030;2023-03-19T06:02:43;72.45;;;32.80;;
21315;SDS011;10817;55.820;13.030;2023-03-19T06:05:30;82.50;;;33.75;;
21315;SDS011;10817;55.820;13.030;2023-03-19T06:08:05;90.05;;;36.40;;
21315;SDS011;10817;55.820;13.030;2023-03-19T06:10:51;103.43;;;37.03;;
21315;SDS011;10817;55.820;13.030;2023-03-19T06:13:18;111.20;;;37.70;;
21315;SDS011;10817;55.820;13.030;2023-03-19T06:15:54;94.05;;;38.72;;
21315;SDS011;10817;55.820;13.030;2023-03-19T06:18:31;86.07;;;40.10;;
21315;SDS011;10817;55.820;13.030;2023-03-19T06:21:02;84.50;;;40.75;;
21315;SDS011;10817;55.820;13.030;2023-03-19T06:23:30;83.57;;;40.70;;
21315;SDS011;10817;55.820;13.030;2023-03-19T06:25:58;74.40;;;41.60;;
21315;SDS011;10817;55.820;13.030;2023-03-19T06:28:31;70.38;;;41.05;;
21315;SDS011;10817;55.820;13.030;2023-03-19T06:30:59;78.40;;;42.33;;
21315;SDS011;10817;55.820;13.030;2023-03-19T06:33:48;68.10;;;40.88;;
21315;SDS011;10817;55.820;13.030;2023-03-19T06:36:15;71.43;;;43.75;;
21315;SDS011;10817;55.820;13.030;2023-03-19T06:38:43;82.93;;;42.45;;
21315;SDS011;10817;55.820;13.030;2023-03-19T06:41:10;71.65;;;43.88;;
21315;SDS011;10817;55.820;13.030;2023-03-19T06:43:38;86.82;;;44.20;;
21315;SDS011;10817;55.820;13.030;2023-03-19T06:46:06;76.10;;;44.60;;
21315;SDS011;10817;55.820;13.030;2023-03-19T06:48:34;88.40;;;47.22;;
21315;SDS011;10817;55.820;13.030;2023-03-19T06:51:04;96.88;;;49.33;;
21315;SDS011;10817;55.820;13.030;2023-03-19T06:53:31;81.38;;;48.28;;
21315;SDS011;10817;55.820;13.030;2023-03-19T06:55:59;74.32;;;45.40;;
21315;SDS011;10817;55.820;13.030;2023-03-19T06:58:26;73.03;;;46.20;;
21315;SDS011;10817;55.820;13.030;2023-03-19T07:00:54;71.53;;;44.97;;
21315;SDS011;10817;55.820;13.030;2023-03-19T07:03:23;73.63;;;43.45;;
21315;SDS011;10817;55.820;13.030;2023-03-19T07:05:50;79.80;;;43.58;;
21315;SDS011;10817;55.820;13.030;2023-03-19T07:08:19;73.15;;;44.13;;
21315;SDS011;10817;55.820;13.030;2023-03-19T07:10:46;66.00;;;43.28;;
21315;SDS011;10817;55.820;13.030;2023-03-19T07:13:14;69.03;;;44.13;;
21315;SDS011;10817;55.820;13.030;2023-03-19T07:15:41;67.47;;;43.38;;
21315;SDS011;10817;55.820;13.030;2023-03-19T07:18:08;70.63;;;40.78;;
21315;SDS011;10817;55.820;13.030;2023-03-19T07:20:36;61.13;;;39.78;;
21315;SDS011;10817;55.820;13.030;2023-03-19T07:23:03;62.45;;;40.42;;
21315;SDS011;10817;55.820;13.030;2023-03-19T07:25:32;64.75;;;40.47;;
21315;SDS011;10817;55.820;13.030;2023-03-19T07:27:59;56.63;;;38.28;;
21315;SDS011;10817;55.820;13.030;2023-03-19T07:30:26;65.18;;;40.83;;
21315;SDS011;10817;55.820;13.030;2023-03-19T07:32:53;59.15;;;39.45;;
21315;SDS011;10817;55.820;13.030;2023-03-19T07:35:20;64.55;;;38.90;;
21315;SDS011;10817;55.820;13.030;2023-03-19T07:37:48;65.18;;;39.58;;
21315;SDS011;10817;55.820;13.030;2023-03-19T07:40:15;63.15;;;39.30;;
21315;SDS011;10817;55.820;13.030;2023-03-19T07:42:43;61.15;;;39.05;;
21315;SDS011;10817;55.820;13.030;2023-03-19T07:45:11;62.28;;;39.08;;
21315;SDS011;10817;55.820;13.030;2023-03-19T07:47:38;63.75;;;39.50;;
21315;SDS011;10817;55.820;13.030;2023-03-19T07:50:06;62.38;;;39.72;;
21315;SDS011;10817;55.820;13.030;2023-03-19T07:52:33;71.85;;;39.35;;
21315;SDS011;10817;55.820;13.030;2023-03-19T07:55:00;66.57;;;39.97;;
21315;SDS011;10817;55.820;13.030;2023-03-19T07:57:27;63.30;;;40.20;;
21315;SDS011;10817;55.820;13.030;2023-03-19T07:59:58;65.25;;;40.28;;
21315;SDS011;10817;55.820;13.030;2023-03-19T08:02:25;70.78;;;41.47;;
21315;SDS011;10817;55.820;13.030;2023-03-19T08:04:52;61.90;;;39.97;;
21315;SDS011;10817;55.820;13.030;2023-03-19T08:07:20;72.55;;;42.58;;
21315;SDS011;10817;55.820;13.030;2023-03-19T08:09:47;72.55;;;43.03;;
21315;SDS011;10817;55.820;13.030;2023-03-19T08:12:14;71.32;;;41.83;;
21315;SDS011;10817;55.820;13.030;2023-03-19T08:14:41;73.03;;;42.97;;
21315;SDS011;10817;55.820;13.030;2023-03-19T08:17:09;77.35;;;44.15;;
21315;SDS011;10817;55.820;13.030;2023-03-19T08:19:37;69.05;;;41.38;;
21315;SDS011;10817;55.820;13.030;2023-03-19T08:22:04;69.05;;;40.83;;
21315;SDS011;10817;55.820;13.030;2023-03-19T08:24:31;73.28;;;42.10;;
21315;SDS011;10817;55.820;13.030;2023-03-19T08:26:58;70.70;;;41.75;;
21315;SDS011;10817;55.820;13.030;2023-03-19T08:29:25;70.75;;;41.28;;
21315;SDS011;10817;55.820;13.030;2023-03-19T08:31:52;69.18;;;40.78;;
21315;SDS011;10817;55.820;13.030;2023-03-19T08:34:21;63.97;;;40.45;;
21315;SDS011;10817;55.820;13.030;2023-03-19T08:36:49;66.82;;;40.90;;
21315;SDS011;10817;55.820;13.030;2023-03-19T08:39:16;70.05;;;41.50;;
21315;SDS011;10817;55.820;13.030;2023-03-19T08:41:43;68.93;;;40.00;;
21315;SDS011;10817;55.820;13.030;2023-03-19T08:44:10;70.05;;;41.05;;
21315;SDS011;10817;55.820;13.030;2023-03-19T08:46:38;68.80;;;40.90;;
21315;SDS011;10817;55.820;13.030;2023-03-19T08:49:06;68.70;;;41.15;;
21315;SDS011;10817;55.820;13.030;2023-03-19T08:51:35;65.43;;;39.47;;
21315;SDS011;10817;55.820;13.030;2023-03-19T08:54:04;71.95;;;42.67;;
21315;SDS011;10817;55.820;13.030;2023-03-19T08:56:31;65.82;;;40.45;;
21315;SDS011;10817;55.820;13.030;2023-03-19T08:58:58;65.47;;;40.38;;
21315;SDS011;10817;55.820;13.030;2023-03-19T09:01:25;68.28;;;41.42;;
21315;SDS011;10817;55.820;13.030;2023-03-19T09:03:53;59.22;;;38.65;;
21315;SDS011;10817;55.820;13.030;2023-03-19T09:06:20;62.85;;;40.05;;
21315;SDS011;10817;55.820;13.030;2023-03-19T09:08:48;64.45;;;39.92;;
21315;SDS011;10817;55.820;13.030;2023-03-19T09:11:15;63.28;;;40.47;;
21315;SDS011;10817;55.820;13.030;2023-03-19T09:13:42;62.83;;;39.78;;
21315;SDS011;10817;55.820;13.030;2023-03-19T09:16:10;62.42;;;38.55;;
21315;SDS011;10817;55.820;13.030;2023-03-19T09:18:37;62.75;;;39.63;;
21315;SDS011;10817;55.820;13.030;2023-03-19T09:21:04;61.35;;;39.95;;
21315;SDS011;10817;55.820;13.030;2023-03-19T09:23:31;60.10;;;38.72;;
21315;SDS011;10817;55.820;13.030;2023-03-19T09:26:00;65.63;;;40.38;;
21315;SDS011;10817;55.820;13.030;2023-03-19T09:28:27;65.45;;;40.13;;
21315;SDS011;10817;55.820;13.030;2023-03-19T09:30:54;63.28;;;40.63;;
21315;SDS011;10817;55.820;13.030;2023-03-19T09:33:21;63.47;;;40.13;;
21315;SDS011;10817;55.820;13.030;2023-03-19T09:35:49;65.15;;;40.40;;
21315;SDS011;10817;55.820;13.030;2023-03-19T09:38:17;61.72;;;39.40;;
21315;SDS011;10817;55.820;13.030;2023-03-19T09:40:45;62.38;;;39.35;;
21315;SDS011;10817;55.820;13.030;2023-03-19T09:43:20;63.85;;;38.38;;
21315;SDS011;10817;55.820;13.030;2023-03-19T09:45:53;60.42;;;37.42;;
21315;SDS011;10817;55.820;13.030;2023-03-19T09:48:23;63.72;;;39.13;;
21315;SDS011;10817;55.820;13.030;2023-03-19T09:50:56;60.22;;;38.70;;
21315;SDS011;10817;55.820;13.030;2023-03-19T09:53:27;62.13;;;38.22;;
21315;SDS011;10817;55.820;13.030;2023-03-19T09:55:57;65.30;;;40.15;;
21315;SDS011;10817;55.820;13.030;2023-03-19T09:58:27;62.33;;;38.33;;
21315;SDS011;10817;55.820;13.030;2023-03-19T10:00:56;59.38;;;37.85;;
21315;SDS011;10817;55.820;13.030;2023-03-19T10:06:23;57.97;;;36.83;;
21315;SDS011;10817;55.820;13.030;2023-03-19T10:08:57;55.80;;;36.35;;
21315;SDS011;10817;55.820;13.030;2023-03-19T10:11:32;58.78;;;38.38;;
21315;SDS011;10817;55.820;13.030;2023-03-19T10:14:11;56.47;;;36.15;;
21315;SDS011;10817;55.820;13.030;2023-03-19T10:16:41;53.13;;;35.40;;
21315;SDS011;10817;55.820;13.030;2023-03-19T10:19:09;58.40;;;36.47;;
21315;SDS011;10817;55.820;13.030;2023-03-19T10:21:39;50.35;;;35.28;;
21315;SDS011;10817;55.820;13.030;2023-03-19T10:24:10;59.38;;;37.15;;
21315;SDS011;10817;55.820;13.030;2023-03-19T10:26:37;59.80;;;37.67;;
21315;SDS011;10817;55.820;13.030;2023-03-19T10:29:05;60.47;;;38.90;;
21315;SDS011;10817;55.820;13.030;2023-03-19T10:31:41;58.13;;;39.28;;
21315;SDS011;10817;55.820;13.030;2023-03-19T10:34:13;71.15;;;44.97;;
21315;SDS011;10817;55.820;13.030;2023-03-19T10:36:43;65.10;;;41.90;;
21315;SDS011;10817;55.820;13.030;2023-03-19T10:39:10;66.10;;;41.92;;
21315;SDS011;10817;55.820;13.030;2023-03-19T10:41:41;61.72;;;40.60;;
21315;SDS011;10817;55.820;13.030;2023-03-19T10:44:14;65.63;;;40.72;;
21315;SDS011;10817;55.820;13.030;2023-03-19T10:46:43;64.95;;;41.60;;
21315;SDS011;10817;55.820;13.030;2023-03-19T10:49:11;64.15;;;41.22;;
21315;SDS011;10817;55.820;13.030;2023-03-19T10:51:38;63.67;;;41.55;;
21315;SDS011;10817;55.820;13.030;2023-03-19T10:54:16;64.22;;;42.67;;
21315;SDS011;10817;55.820;13.030;2023-03-19T10:56:45;69.28;;;43.63;;
21315;SDS011;10817;55.820;13.030;2023-03-19T10:59:18;69.00;;;44.22;;
21315;SDS011;10817;55.820;13.030;2023-03-19T11:01:48;64.72;;;42.17;;
21315;SDS011;10817;55.820;13.030;2023-03-19T11:04:17;62.17;;;40.67;;
21315;SDS011;10817;55.820;13.030;2023-03-19T11:06:47;56.80;;;39.25;;
21315;SDS011;10817;55.820;13.030;2023-03-19T11:09:17;64.40;;;41.15;;
21315;SDS011;10817;55.820;13.030;2023-03-19T11:11:46;59.17;;;40.20;;
21315;SDS011;10817;55.820;13.030;2023-03-19T11:14:14;58.80;;;38.67;;
21315;SDS011;10817;55.820;13.030;2023-03-19T11:16:45;62.42;;;39.55;;
21315;SDS011;10817;55.820;13.030;2023-03-19T11:19:17;61.53;;;40.20;;
21315;SDS011;10817;55.820;13.030;2023-03-19T11:21:52;57.15;;;38.08;;
21315;SDS011;10817;55.820;13.030;2023-03-19T11:24:19;58.40;;;38.80;;
21315;SDS011;10817;55.820;13.030;2023-03-19T11:26:52;61.08;;;38.78;;
21315;SDS011;10817;55.820;13.030;2023-03-19T11:29:20;57.15;;;37.80;;
21315;SDS011;10817;55.820;13.030;2023-03-19T11:31:49;61.25;;;39.67;;
21315;SDS011;10817;55.820;13.030;2023-03-19T11:34:22;62.25;;;39.90;;
21315;SDS011;10817;55.820;13.030;2023-03-19T11:36:53;62.05;;;39.42;;
21315;SDS011;10817;55.820;13.030;2023-03-19T11:39:24;62.05;;;38.80;;
21315;SDS011;10817;55.820;13.030;2023-03-19T11:42:09;63.70;;;38.97;;
21315;SDS011;10817;55.820;13.030;2023-03-19T11:44:38;62.95;;;39.47;;
21315;SDS011;10817;55.820;13.030;2023-03-19T11:47:11;56.38;;;38.60;;
21315;SDS011;10817;55.820;13.030;2023-03-19T11:49:43;54.08;;;36.72;;
21315;SDS011;10817;55.820;13.030;2023-03-19T11:52:15;54.53;;;34.50;;
21315;SDS011;10817;55.820;13.030;2023-03-19T11:54:48;47.95;;;32.63;;
21315;SDS011;10817;55.820;13.030;2023-03-19T11:57:22;46.13;;;30.45;;
21315;SDS011;10817;55.820;13.030;2023-03-19T11:59:57;47.85;;;30.48;;
21315;SDS011;10817;55.820;13.030;2023-03-19T12:05:24;50.78;;;32.08;;
21315;SDS011;10817;55.820;13.030;2023-03-19T12:07:55;50.53;;;32.20;;
21315;SDS011;10817;55.820;13.030;2023-03-19T12:10:27;47.25;;;31.92;;
21315;SDS011;10817;55.820;13.030;2023-03-19T12:12:58;49.42;;;32.60;;
21315;SDS011;10817;55.820;13.030;2023-03-19T12:15:30;45.17;;;30.85;;
21315;SDS011;10817;55.820;13.030;2023-03-19T12:18:03;46.28;;;30.58;;
21315;SDS011;10817;55.820;13.030;2023-03-19T12:20:40;45.90;;;32.33;;
21315;SDS011;10817;55.820;13.030;2023-03-19T12:23:15;43.33;;;29.10;;
21315;SDS011;10817;55.820;13.030;2023-03-19T12:25:49;47.90;;;30.30;;
21315;SDS011;10817;55.820;13.030;2023-03-19T12:28:21;46.75;;;30.60;;
21315;SDS011;10817;55.820;13.030;2023-03-19T12:30:53;47.08;;;30.98;;
21315;SDS011;10817;55.820;13.030;2023-03-19T12:33:29;43.50;;;30.00;;
21315;SDS011;10817;55.820;13.030;2023-03-19T12:36:04;43.55;;;29.92;;
21315;SDS011;10817;55.820;13.030;2023-03-19T12:38:35;46.38;;;30.17;;
21315;SDS011;10817;55.820;13.030;2023-03-19T12:41:04;42.85;;;29.75;;
21315;SDS011;10817;55.820;13.030;2023-03-19T12:43:35;43.15;;;28.85;;
21315;SDS011;10817;55.820;13.030;2023-03-19T12:46:04;40.10;;;28.42;;
21315;SDS011;10817;55.820;13.030;2023-03-19T12:48:34;39.03;;;28.13;;
21315;SDS011;10817;55.820;13.030;2023-03-19T12:51:07;39.47;;;27.95;;
21315;SDS011;10817;55.820;13.030;2023-03-19T12:53:39;39.40;;;27.85;;
21315;SDS011;10817;55.820;13.030;2023-03-19T12:56:11;37.15;;;27.10;;
21315;SDS011;10817;55.820;13.030;2023-03-19T12:58:42;38.65;;;27.50;;
21315;SDS011;10817;55.820;13.030;2023-03-19T13:01:15;41.45;;;29.05;;
21315;SDS011;10817;55.820;13.030;2023-03-19T13:03:45;36.92;;;28.38;;
21315;SDS011;10817;55.820;13.030;2023-03-19T13:06:20;40.58;;;28.70;;
21315;SDS011;10817;55.820;13.030;2023-03-19T13:08:49;42.20;;;30.40;;
21315;SDS011;10817;55.820;13.030;2023-03-19T13:11:20;46.47;;;31.80;;
21315;SDS011;10817;55.820;13.030;2023-03-19T13:13:52;44.05;;;31.05;;
21315;SDS011;10817;55.820;13.030;2023-03-19T13:16:27;46.55;;;32.70;;
21315;SDS011;10817;55.820;13.030;2023-03-19T13:18:57;49.22;;;33.40;;
21315;SDS011;10817;55.820;13.030;2023-03-19T13:21:31;47.20;;;34.13;;
21315;SDS011;10817;55.820;13.030;2023-03-19T13:24:01;46.28;;;32.58;;
21315;SDS011;10817;55.820;13.030;2023-03-19T13:26:30;47.95;;;34.42;;
21315;SDS011;10817;55.820;13.030;2023-03-19T13:28:59;45.38;;;32.83;;
21315;SDS011;10817;55.820;13.030;2023-03-19T13:31:28;46.47;;;31.83;;
21315;SDS011;10817;55.820;13.030;2023-03-19T13:33:59;49.10;;;34.13;;
21315;SDS011;10817;55.820;13.030;2023-03-19T13:36:28;46.50;;;32.58;;
21315;SDS011;10817;55.820;13.030;2023-03-19T13:38:57;44.45;;;32.17;;
21315;SDS011;10817;55.820;13.030;2023-03-19T13:44:18;43.83;;;31.92;;
21315;SDS011;10817;55.820;13.030;2023-03-19T13:46:50;41.75;;;29.95;;
21315;SDS011;10817;55.820;13.030;2023-03-19T13:49:24;38.90;;;29.23;;
21315;SDS011;10817;55.820;13.030;2023-03-19T13:51:53;38.95;;;30.50;;
21315;SDS011;10817;55.820;13.030;2023-03-19T13:54:30;33.63;;;26.17;;
21315;SDS011;10817;55.820;13.030;2023-03-19T13:57:03;33.75;;;25.70;;
21315;SDS011;10817;55.820;13.030;2023-03-19T13:59:32;37.72;;;26.25;;
21315;SDS011;10817;55.820;13.030;2023-03-19T14:02:00;36.13;;;27.65;;
21315;SDS011;10817;55.820;13.030;2023-03-19T14:04:28;34.80;;;26.75;;
21315;SDS011;10817;55.820;13.030;2023-03-19T14:06:56;33.97;;;26.48;;
21315;SDS011;10817;55.820;13.030;2023-03-19T14:09:38;34.38;;;26.25;;
21315;SDS011;10817;55.820;13.030;2023-03-19T14:12:08;39.72;;;27.42;;
21315;SDS011;10817;55.820;13.030;2023-03-19T14:14:38;37.33;;;27.63;;
21315;SDS011;10817;55.820;13.030;2023-03-19T14:17:10;39.65;;;27.70;;
21315;SDS011;10817;55.820;13.030;2023-03-19T14:19:39;37.35;;;25.27;;
21315;SDS011;10817;55.820;13.030;2023-03-19T14:22:07;34.13;;;25.02;;
21315;SDS011;10817;55.820;13.030;2023-03-19T14:24:36;38.85;;;26.85;;
21315;SDS011;10817;55.820;13.030;2023-03-19T14:27:13;38.90;;;25.70;;
21315;SDS011;10817;55.820;13.030;2023-03-19T14:29:42;40.17;;;28.00;;
21315;SDS011;10817;55.820;13.030;2023-03-19T14:32:12;34.03;;;25.55;;
21315;SDS011;10817;55.820;13.030;2023-03-19T14:34:42;36.83;;;25.27;;